sensor_id;sensor_type;location;lat;lon;timestamp;P1;durP1;ratioP1;P2;durP2;ratioP2
62475;SDS011;50739;45.670;11.936;2022-08-19T00:04:20;5.30;;;1.65;;
62475;SDS011;50739;45.670;11.936;2022-08-19T00:09:24;5.82;;;1.63;;
62475;SDS011;50739;45.670;11.936;2022-08-19T00:14:28;4.55;;;1.30;;
62475;SDS011;50739;45.670;11.936;2022-08-19T00:19:31;8.43;;;1.55;;
62475;SDS011;50739;45.670;11.936;2022-08-19T00:24:33;7.20;;;1.93;;
62475;SDS011;50739;45.670;11.936;2022-08-19T00:29:39;6.27;;;1.70;;
62475;SDS011;50739;45.670;11.936;2022-08-19T00:34:41;9.73;;;2.17;;
62475;SDS011;50739;45.670;11.936;2022-08-19T00:39:43;4.97;;;1.75;;
62475;SDS011;50739;45.670;11.936;2022-08-19T00:44:46;5.68;;;1.80;;
62475;SDS011;50739;45.670;11.936;2022-08-19T00:49:49;8.45;;;3.28;;
62475;SDS011;50739;45.670;11.936;2022-08-19T00:54:54;5.93;;;1.92;;
62475;SDS011;50739;45.670;11.936;2022-08-19T00:59:59;7.55;;;2.15;;
62475;SDS011;50739;45.670;11.936;2022-08-19T01:05:03;8.23;;;2.58;;
62475;SDS011;50739;45.670;11.936;2022-08-19T01:10:09;6.72;;;1.77;;
62475;SDS011;50739;45.670;11.936;2022-08-19T01:15:18;7.03;;;2.33;;
62475;SDS011;50739;45.670;11.936;2022-08-19T01:20:23;5.88;;;1.92;;
62475;SDS011;50739;45.670;11.936;2022-08-19T01:25:28;5.00;;;1.93;;
62475;SDS011;50739;45.670;11.936;2022-08-19T01:30:34;5.30;;;2.03;;
62475;SDS011;50739;45.670;11.936;2022-08-19T01:35:37;6.70;;;2.30;;
62475;SDS011;50739;45.670;11.936;2022-08-19T01:40:41;5.13;;;1.85;;
62475;SDS011;50739;45.670;11.936;2022-08-19T01:45:45;4.63;;;2.00;;
62475;SDS011;50739;45.670;11.936;2022-08-19T01:50:47;5.50;;;2.30;;
62475;SDS011;50739;45.670;11.936;2022-08-19T01:55:50;5.43;;;2.30;;
62475;SDS011;50739;45.670;11.936;2022-08-19T02:00:52;5.35;;;1.80;;
62475;SDS011;50739;45.670;11.936;2022-08-19T02:05:55;6.28;;;2.20;;
62475;SDS011;50739;45.670;11.936;2022-08-19T02:11:01;4.93;;;1.77;;
62475;SDS011;50739;45.670;11.936;2022-08-19T02:16:03;4.65;;;1.70;;
62475;SDS011;50739;45.670;11.936;2022-08-19T02:21:05;4.88;;;1.55;;
62475;SDS011;50739;45.670;11.936;2022-08-19T02:26:08;5.43;;;1.50;;
62475;SDS011;50739;45.670;11.936;2022-08-19T02:31:11;5.82;;;1.38;;
62475;SDS011;50739;45.670;11.936;2022-08-19T02:36:16;3.92;;;1.35;;
62475;SDS011;50739;45.670;11.936;2022-08-19T02:41:20;4.88;;;1.80;;
62475;SDS011;50739;45.670;11.936;2022-08-19T02:46:24;5.45;;;1.50;;
62475;SDS011;50739;45.670;11.936;2022-08-19T02:51:28;4.07;;;1.55;;
62475;SDS011;50739;45.670;11.936;2022-08-19T02:56:35;4.53;;;1.93;;
62475;SDS011;50739;45.670;11.936;2022-08-19T03:01:39;5.72;;;2.00;;
62475;SDS011;50739;45.670;11.936;2022-08-19T03:06:42;5.68;;;1.92;;
62475;SDS011;50739;45.670;11.936;2022-08-19T03:11:47;5.35;;;1.50;;
62475;SDS011;50739;45.670;11.936;2022-08-19T03:16:50;3.97;;;1.23;;
62475;SDS011;50739;45.670;11.936;2022-08-19T03:21:53;3.88;;;1.25;;
62475;SDS011;50739;45.670;11.936;2022-08-19T03:26:57;5.33;;;1.43;;
62475;SDS011;50739;45.670;11.936;2022-08-19T03:31:59;4.00;;;1.43;;
62475;SDS011;50739;45.670;11.936;2022-08-19T03:37:05;4.13;;;1.17;;
62475;SDS011;50739;45.670;11.936;2022-08-19T03:42:11;3.35;;;1.40;;
62475;SDS011;50739;45.670;11.936;2022-08-19T03:47:13;3.05;;;1.30;;
62475;SDS011;50739;45.670;11.936;2022-08-19T03:52:16;4.43;;;1.00;;
62475;SDS011;50739;45.670;11.936;2022-08-19T03:57:19;3.47;;;1.20;;
62475;SDS011;50739;45.670;11.936;2022-08-19T04:02:21;3.87;;;1.20;;
62475;SDS011;50739;45.670;11.936;2022-08-19T04:07:23;4.60;;;1.20;;
62475;SDS011;50739;45.670;11.936;2022-08-19T04:12:27;2.95;;;1.90;;
62475;SDS011;50739;45.670;11.936;2022-08-19T04:17:30;4.30;;;1.27;;
62475;SDS011;50739;45.670;11.936;2022-08-19T04:22:32;4.38;;;1.30;;
62475;SDS011;50739;45.670;11.936;2022-08-19T04:27:35;5.13;;;1.08;;
62475;SDS011;50739;45.670;11.936;2022-08-19T04:32:37;4.50;;;1.17;;
62475;SDS011;50739;45.670;11.936;2022-08-19T04:37:39;3.15;;;1.10;;
62475;SDS011;50739;45.670;11.936;2022-08-19T04:42:42;6.10;;;1.60;;
62475;SDS011;50739;45.670;11.936;2022-08-19T04:47:44;4.78;;;1.40;;
62475;SDS011;50739;45.670;11.936;2022-08-19T04:52:46;4.45;;;1.23;;
62475;SDS011;50739;45.670;11.936;2022-08-19T04:57:52;3.05;;;1.23;;
62475;SDS011;50739;45.670;11.936;2022-08-19T05:02:54;2.75;;;1.33;;
62475;SDS011;50739;45.670;11.936;2022-08-19T05:07:56;4.13;;;1.10;;
62475;SDS011;50739;45.670;11.936;2022-08-19T05:12:59;4.95;;;1.10;;
62475;SDS011;50739;45.670;11.936;2022-08-19T05:18:01;3.22;;;0.82;;
62475;SDS011;50739;45.670;11.936;2022-08-19T05:23:21;4.57;;;0.90;;
62475;SDS011;50739;45.670;11.936;2022-08-19T05:28:24;3.97;;;1.00;;
62475;SDS011;50739;45.670;11.936;2022-08-19T05:33:27;2.67;;;1.20;;
62475;SDS011;50739;45.670;11.936;2022-08-19T05:38:30;3.28;;;1.67;;
62475;SDS011;50739;45.670;11.936;2022-08-19T05:43:33;3.10;;;1.10;;
62475;SDS011;50739;45.670;11.936;2022-08-19T05:48:37;3.20;;;1.20;;
62475;SDS011;50739;45.670;11.936;2022-08-19T05:53:39;5.05;;;1.10;;
62475;SDS011;50739;45.670;11.936;2022-08-19T05:58:43;3.20;;;0.95;;
62475;SDS011;50739;45.670;11.936;2022-08-19T06:03:46;4.05;;;1.00;;
62475;SDS011;50739;45.670;11.936;2022-08-19T06:08:48;4.88;;;1.42;;
62475;SDS011;50739;45.670;11.936;2022-08-19T06:13:53;4.18;;;1.50;;
62475;SDS011;50739;45.670;11.936;2022-08-19T06:18:59;2.38;;;1.00;;
62475;SDS011;50739;45.670;11.936;2022-08-19T06:24:04;4.00;;;1.40;;
62475;SDS011;50739;45.670;11.936;2022-08-19T06:29:09;5.18;;;1.20;;
62475;SDS011;50739;45.670;11.936;2022-08-19T06:34:14;4.17;;;1.10;;
62475;SDS011;50739;45.670;11.936;2022-08-19T06:39:17;2.53;;;1.20;;
62475;SDS011;50739;45.670;11.936;2022-08-19T06:44:24;3.90;;;1.20;;
62475;SDS011;50739;45.670;11.936;2022-08-19T06:49:27;5.22;;;1.05;;
62475;SDS011;50739;45.670;11.936;2022-08-19T06:54:31;3.20;;;1.10;;
62475;SDS011;50739;45.670;11.936;2022-08-19T06:59:34;2.83;;;1.03;;
62475;SDS011;50739;45.670;11.936;2022-08-19T07:04:37;4.95;;;1.30;;
62475;SDS011;50739;45.670;11.936;2022-08-19T07:09:40;3.00;;;1.30;;
62475;SDS011;50739;45.670;11.936;2022-08-19T07:14:44;2.42;;;0.90;;
62475;SDS011;50739;45.670;11.936;2022-08-19T07:19:49;2.83;;;1.02;;
62475;SDS011;50739;45.670;11.936;2022-08-19T07:24:51;2.88;;;0.80;;
62475;SDS011;50739;45.670;11.936;2022-08-19T07:29:55;3.97;;;1.23;;
62475;SDS011;50739;45.670;11.936;2022-08-19T07:34:58;3.22;;;1.23;;
62475;SDS011;50739;45.670;11.936;2022-08-19T07:40:04;5.27;;;1.10;;
62475;SDS011;50739;45.670;11.936;2022-08-19T07:45:08;4.97;;;1.20;;
62475;SDS011;50739;45.670;11.936;2022-08-19T07:50:11;4.68;;;1.33;;
62475;SDS011;50739;45.670;11.936;2022-08-19T07:55:13;6.32;;;1.50;;
62475;SDS011;50739;45.670;11.936;2022-08-19T08:00:17;6.45;;;1.30;;
62475;SDS011;50739;45.670;11.936;2022-08-19T08:05:21;2.83;;;1.47;;
62475;SDS011;50739;45.670;11.936;2022-08-19T08:10:40;3.75;;;1.63;;
62475;SDS011;50739;45.670;11.936;2022-08-19T08:15:44;4.17;;;1.63;;
62475;SDS011;50739;45.670;11.936;2022-08-19T08:20:46;3.38;;;1.60;;
62475;SDS011;50739;45.670;11.936;2022-08-19T08:25:48;3.40;;;1.60;;
62475;SDS011;50739;45.670;11.936;2022-08-19T08:30:52;4.72;;;2.30;;
62475;SDS011;50739;45.670;11.936;2022-08-19T08:35:54;4.33;;;2.10;;
62475;SDS011;50739;45.670;11.936;2022-08-19T08:40:57;4.77;;;2.43;;
62475;SDS011;50739;45.670;11.936;2022-08-19T08:46:09;7.97;;;2.65;;
62475;SDS011;50739;45.670;11.936;2022-08-19T08:51:15;4.90;;;2.00;;
62475;SDS011;50739;45.670;11.936;2022-08-19T08:56:23;5.82;;;1.92;;
62475;SDS011;50739;45.670;11.936;2022-08-19T09:01:27;3.23;;;1.37;;
62475;SDS011;50739;45.670;11.936;2022-08-19T09:06:32;3.50;;;1.58;;
62475;SDS011;50739;45.670;11.936;2022-08-19T09:11:44;3.88;;;1.70;;
62475;SDS011;50739;45.670;11.936;2022-08-19T09:16:58;5.53;;;1.63;;
62475;SDS011;50739;45.670;11.936;2022-08-19T09:22:00;2.90;;;1.58;;
62475;SDS011;50739;45.670;11.936;2022-08-19T09:27:02;3.65;;;1.20;;
62475;SDS011;50739;45.670;11.936;2022-08-19T09:32:06;4.03;;;1.50;;
62475;SDS011;50739;45.670;11.936;2022-08-19T09:37:08;3.72;;;1.40;;
62475;SDS011;50739;45.670;11.936;2022-08-19T09:42:10;4.17;;;1.33;;
62475;SDS011;50739;45.670;11.936;2022-08-19T09:47:15;2.92;;;1.15;;
62475;SDS011;50739;45.670;11.936;2022-08-19T09:52:17;3.25;;;1.25;;
62475;SDS011;50739;45.670;11.936;2022-08-19T09:57:18;3.20;;;1.10;;
62475;SDS011;50739;45.670;11.936;2022-08-19T10:02:22;2.60;;;1.13;;
62475;SDS011;50739;45.670;11.936;2022-08-19T10:07:24;2.80;;;1.10;;
62475;SDS011;50739;45.670;11.936;2022-08-19T10:12:26;4.63;;;1.10;;
62475;SDS011;50739;45.670;11.936;2022-08-19T10:17:30;2.47;;;0.70;;
62475;SDS011;50739;45.670;11.936;2022-08-19T10:22:33;1.83;;;0.97;;
62475;SDS011;50739;45.670;11.936;2022-08-19T10:27:37;2.55;;;1.10;;
62475;SDS011;50739;45.670;11.936;2022-08-19T10:32:40;2.22;;;0.90;;
62475;SDS011;50739;45.670;11.936;2022-08-19T10:37:42;1.07;;;0.80;;
62475;SDS011;50739;45.670;11.936;2022-08-19T10:42:44;2.90;;;0.80;;
62475;SDS011;50739;45.670;11.936;2022-08-19T10:47:47;3.33;;;0.90;;
62475;SDS011;50739;45.670;11.936;2022-08-19T10:52:49;2.58;;;0.90;;
62475;SDS011;50739;45.670;11.936;2022-08-19T10:57:51;3.08;;;0.90;;
62475;SDS011;50739;45.670;11.936;2022-08-19T11:02:55;3.53;;;1.00;;
62475;SDS011;50739;45.670;11.936;2022-08-19T11:07:57;4.18;;;1.10;;
62475;SDS011;50739;45.670;11.936;2022-08-19T11:12:59;3.33;;;1.33;;
62475;SDS011;50739;45.670;11.936;2022-08-19T11:18:02;2.70;;;1.40;;
62475;SDS011;50739;45.670;11.936;2022-08-19T11:23:05;4.20;;;1.37;;
62475;SDS011;50739;45.670;11.936;2022-08-19T11:28:07;3.17;;;1.13;;
62475;SDS011;50739;45.670;11.936;2022-08-19T11:33:11;2.88;;;1.00;;
62475;SDS011;50739;45.670;11.936;2022-08-19T11:38:12;1.40;;;0.90;;
62475;SDS011;50739;45.670;11.936;2022-08-19T11:43:14;6.13;;;1.20;;
62475;SDS011;50739;45.670;11.936;2022-08-19T11:48:19;2.03;;;0.83;;
62475;SDS011;50739;45.670;11.936;2022-08-19T11:53:22;2.95;;;1.00;;
62475;SDS011;50739;45.670;11.936;2022-08-19T11:58:25;1.77;;;0.93;;
62475;SDS011;50739;45.670;11.936;2022-08-19T12:03:28;1.20;;;0.60;;
62475;SDS011;50739;45.670;11.936;2022-08-19T12:08:30;1.03;;;0.73;;
62475;SDS011;50739;45.670;11.936;2022-08-19T12:13:33;1.65;;;0.70;;
62475;SDS011;50739;45.670;11.936;2022-08-19T12:18:37;2.25;;;1.00;;
62475;SDS011;50739;45.670;11.936;2022-08-19T12:23:39;4.30;;;0.80;;
62475;SDS011;50739;45.670;11.936;2022-08-19T12:28:41;2.72;;;0.77;;
62475;SDS011;50739;45.670;11.936;2022-08-19T12:33:45;2.80;;;1.08;;
62475;SDS011;50739;45.670;11.936;2022-08-19T12:38:48;2.35;;;0.90;;
62475;SDS011;50739;45.670;11.936;2022-08-19T12:43:50;2.08;;;0.80;;
62475;SDS011;50739;45.670;11.936;2022-08-19T12:48:54;2.42;;;0.90;;
62475;SDS011;50739;45.670;11.936;2022-08-19T12:53:56;1.90;;;0.80;;
62475;SDS011;50739;45.670;11.936;2022-08-19T12:59:00;4.75;;;1.13;;
62475;SDS011;50739;45.670;11.936;2022-08-19T13:04:03;2.05;;;0.70;;
62475;SDS011;50739;45.670;11.936;2022-08-19T13:09:07;1.90;;;0.80;;
62475;SDS011;50739;45.670;11.936;2022-08-19T13:14:10;1.00;;;0.50;;
62475;SDS011;50739;45.670;11.936;2022-08-19T13:19:13;2.55;;;0.68;;
62475;SDS011;50739;45.670;11.936;2022-08-19T13:24:15;2.78;;;0.73;;
62475;SDS011;50739;45.670;11.936;2022-08-19T13:29:17;2.40;;;0.80;;
62475;SDS011;50739;45.670;11.936;2022-08-19T13:34:37;2.95;;;0.60;;
62475;SDS011;50739;45.670;11.936;2022-08-19T13:39:39;2.70;;;1.00;;
62475;SDS011;50739;45.670;11.936;2022-08-19T13:44:41;2.45;;;0.85;;
62475;SDS011;50739;45.670;11.936;2022-08-19T13:49:46;2.30;;;0.90;;
62475;SDS011;50739;45.670;11.936;2022-08-19T13:54:50;3.53;;;1.10;;
62475;SDS011;50739;45.670;11.936;2022-08-19T13:59:51;1.60;;;0.90;;
62475;SDS011;50739;45.670;11.936;2022-08-19T14:04:55;3.17;;;1.00;;
62475;SDS011;50739;45.670;11.936;2022-08-19T14:09:57;3.55;;;1.05;;
62475;SDS011;50739;45.670;11.936;2022-08-19T14:15:00;1.37;;;0.80;;
62475;SDS011;50739;45.670;11.936;2022-08-19T14:20:05;1.75;;;1.00;;
62475;SDS011;50739;45.670;11.936;2022-08-19T14:25:10;3.65;;;0.80;;
62475;SDS011;50739;45.670;11.936;2022-08-19T14:30:25;3.10;;;0.95;;
62475;SDS011;50739;45.670;11.936;2022-08-19T14:35:31;3.17;;;1.08;;
62475;SDS011;50739;45.670;11.936;2022-08-19T14:40:35;1.70;;;0.80;;
62475;SDS011;50739;45.670;11.936;2022-08-19T14:45:38;2.27;;;1.30;;
62475;SDS011;50739;45.670;11.936;2022-08-19T14:50:42;2.15;;;1.20;;
62475;SDS011;50739;45.670;11.936;2022-08-19T14:55:45;3.80;;;0.90;;
62475;SDS011;50739;45.670;11.936;2022-08-19T15:00:47;2.75;;;0.90;;
62475;SDS011;50739;45.670;11.936;2022-08-19T15:05:50;1.90;;;1.00;;
62475;SDS011;50739;45.670;11.936;2022-08-19T15:10:53;2.20;;;0.90;;
62475;SDS011;50739;45.670;11.936;2022-08-19T15:15:55;2.00;;;0.80;;
62475;SDS011;50739;45.670;11.936;2022-08-19T15:20:58;3.60;;;0.85;;
62475;SDS011;50739;45.670;11.936;2022-08-19T15:26:00;3.33;;;0.90;;
62475;SDS011;50739;45.670;11.936;2022-08-19T15:31:02;2.53;;;1.10;;
62475;SDS011;50739;45.670;11.936;2022-08-19T15:36:06;3.28;;;1.20;;
62475;SDS011;50739;45.670;11.936;2022-08-19T15:41:15;2.80;;;1.00;;
62475;SDS011;50739;45.670;11.936;2022-08-19T15:46:25;2.45;;;0.90;;
62475;SDS011;50739;45.670;11.936;2022-08-19T15:51:31;2.03;;;1.20;;
62475;SDS011;50739;45.670;11.936;2022-08-19T15:56:34;2.83;;;1.00;;
62475;SDS011;50739;45.670;11.936;2022-08-19T16:02:06;4.23;;;1.30;;
62475;SDS011;50739;45.670;11.936;2022-08-19T16:07:27;2.47;;;1.00;;
62475;SDS011;50739;45.670;11.936;2022-08-19T16:12:29;1.88;;;0.90;;
62475;SDS011;50739;45.670;11.936;2022-08-19T16:17:31;2.63;;;1.10;;
62475;SDS011;50739;45.670;11.936;2022-08-19T16:22:36;3.78;;;1.13;;
62475;SDS011;50739;45.670;11.936;2022-08-19T16:27:39;4.40;;;1.13;;
62475;SDS011;50739;45.670;11.936;2022-08-19T16:32:41;1.52;;;1.00;;
62475;SDS011;50739;45.670;11.936;2022-08-19T16:37:45;4.15;;;1.10;;
62475;SDS011;50739;45.670;11.936;2022-08-19T16:42:47;5.50;;;1.55;;
62475;SDS011;50739;45.670;11.936;2022-08-19T16:47:50;4.32;;;1.70;;
62475;SDS011;50739;45.670;11.936;2022-08-19T16:52:54;3.33;;;1.35;;
62475;SDS011;50739;45.670;11.936;2022-08-19T16:57:57;6.67;;;1.30;;
62475;SDS011;50739;45.670;11.936;2022-08-19T17:03:04;2.88;;;1.35;;
62475;SDS011;50739;45.670;11.936;2022-08-19T17:08:11;3.30;;;1.30;;
62475;SDS011;50739;45.670;11.936;2022-08-19T17:13:13;4.13;;;1.57;;
62475;SDS011;50739;45.670;11.936;2022-08-19T17:18:15;4.97;;;1.30;;
62475;SDS011;50739;45.670;11.936;2022-08-19T17:23:20;3.65;;;1.40;;
62475;SDS011;50739;45.670;11.936;2022-08-19T17:28:23;3.80;;;1.85;;
62475;SDS011;50739;45.670;11.936;2022-08-19T17:33:27;3.87;;;1.17;;
62475;SDS011;50739;45.670;11.936;2022-08-19T17:38:30;4.80;;;1.60;;
62475;SDS011;50739;45.670;11.936;2022-08-19T17:43:33;4.00;;;1.73;;
62475;SDS011;50739;45.670;11.936;2022-08-19T17:48:37;3.60;;;1.83;;
62475;SDS011;50739;45.670;11.936;2022-08-19T17:53:41;5.40;;;1.60;;
62475;SDS011;50739;45.670;11.936;2022-08-19T17:58:43;3.90;;;1.50;;
62475;SDS011;50739;45.670;11.936;2022-08-19T18:03:47;5.03;;;1.55;;
62475;SDS011;50739;45.670;11.936;2022-08-19T18:08:50;5.50;;;1.98;;
62475;SDS011;50739;45.670;11.936;2022-08-19T18:13:52;7.17;;;1.87;;
62475;SDS011;50739;45.670;11.936;2022-08-19T18:18:55;5.38;;;2.35;;
62475;SDS011;50739;45.670;11.936;2022-08-19T18:23:58;4.60;;;1.53;;
62475;SDS011;50739;45.670;11.936;2022-08-19T18:29:00;3.53;;;1.63;;
62475;SDS011;50739;45.670;11.936;2022-08-19T18:34:02;4.38;;;1.58;;
62475;SDS011;50739;45.670;11.936;2022-08-19T18:39:06;5.28;;;1.80;;
62475;SDS011;50739;45.670;11.936;2022-08-19T18:44:25;4.87;;;1.83;;
62475;SDS011;50739;45.670;11.936;2022-08-19T18:49:45;4.38;;;1.67;;
62475;SDS011;50739;45.670;11.936;2022-08-19T18:54:48;8.55;;;2.17;;
62475;SDS011;50739;45.670;11.936;2022-08-19T18:59:50;4.30;;;1.90;;
62475;SDS011;50739;45.670;11.936;2022-08-19T19:04:52;3.53;;;1.73;;
62475;SDS011;50739;45.670;11.936;2022-08-19T19:09:59;5.50;;;2.00;;
62475;SDS011;50739;45.670;11.936;2022-08-19T19:15:01;4.78;;;1.73;;
62475;SDS011;50739;45.670;11.936;2022-08-19T19:20:05;5.60;;;2.25;;
62475;SDS011;50739;45.670;11.936;2022-08-19T19:25:09;4.57;;;2.08;;
62475;SDS011;50739;45.670;11.936;2022-08-19T19:30:11;4.25;;;2.15;;
62475;SDS011;50739;45.670;11.936;2022-08-19T19:35:13;6.03;;;2.53;;
62475;SDS011;50739;45.670;11.936;2022-08-19T19:40:17;4.15;;;2.03;;
62475;SDS011;50739;45.670;11.936;2022-08-19T19:45:21;4.17;;;2.00;;
62475;SDS011;50739;45.670;11.936;2022-08-19T19:50:23;2.60;;;1.50;;
62475;SDS011;50739;45.670;11.936;2022-08-19T19:55:28;5.00;;;1.73;;
62475;SDS011;50739;45.670;11.936;2022-08-19T20:00:30;4.63;;;1.80;;
62475;SDS011;50739;45.670;11.936;2022-08-19T20:05:32;4.47;;;2.38;;
62475;SDS011;50739;45.670;11.936;2022-08-19T20:10:35;4.32;;;1.70;;
62475;SDS011;50739;45.670;11.936;2022-08-19T20:15:38;3.35;;;1.63;;
62475;SDS011;50739;45.670;11.936;2022-08-19T20:20:42;3.80;;;1.77;;
62475;SDS011;50739;45.670;11.936;2022-08-19T20:25:47;4.70;;;1.80;;
62475;SDS011;50739;45.670;11.936;2022-08-19T20:30:49;3.15;;;2.00;;
62475;SDS011;50739;45.670;11.936;2022-08-19T20:35:51;5.47;;;2.08;;
62475;SDS011;50739;45.670;11.936;2022-08-19T20:40:54;6.28;;;2.05;;
62475;SDS011;50739;45.670;11.936;2022-08-19T20:45:56;4.50;;;2.30;;
62475;SDS011;50739;45.670;11.936;2022-08-19T20:50:59;4.00;;;2.10;;
62475;SDS011;50739;45.670;11.936;2022-08-19T20:56:03;4.57;;;2.10;;
62475;SDS011;50739;45.670;11.936;2022-08-19T21:01:06;5.32;;;2.20;;
62475;SDS011;50739;45.670;11.936;2022-08-19T21:06:10;5.07;;;2.50;;
62475;SDS011;50739;45.670;11.936;2022-08-19T21:11:14;3.88;;;2.28;;
62475;SDS011;50739;45.670;11.936;2022-08-19T21:16:16;6.15;;;2.22;;
62475;SDS011;50739;45.670;11.936;2022-08-19T21:21:18;6.50;;;2.47;;
62475;SDS011;50739;45.670;11.936;2022-08-19T21:26:22;6.93;;;2.60;;
62475;SDS011;50739;45.670;11.936;2022-08-19T21:31:24;4.38;;;2.45;;
62475;SDS011;50739;45.670;11.936;2022-08-19T21:36:25;3.80;;;2.10;;
62475;SDS011;50739;45.670;11.936;2022-08-19T21:41:29;5.97;;;2.45;;
62475;SDS011;50739;45.670;11.936;2022-08-19T21:46:30;5.10;;;2.40;;
62475;SDS011;50739;45.670;11.936;2022-08-19T21:51:32;6.43;;;3.10;;
62475;SDS011;50739;45.670;11.936;2022-08-19T21:56:35;5.90;;;3.07;;
62475;SDS011;50739;45.670;11.936;2022-08-19T22:01:39;4.80;;;2.50;;
62475;SDS011;50739;45.670;11.936;2022-08-19T22:06:40;4.43;;;2.40;;
62475;SDS011;50739;45.670;11.936;2022-08-19T22:11:44;4.03;;;2.30;;
62475;SDS011;50739;45.670;11.936;2022-08-19T22:16:46;5.10;;;2.30;;
62475;SDS011;50739;45.670;11.936;2022-08-19T22:21:47;3.20;;;2.42;;
62475;SDS011;50739;45.670;11.936;2022-08-19T22:26:51;8.10;;;2.50;;
62475;SDS011;50739;45.670;11.936;2022-08-19T22:31:52;3.90;;;2.27;;
62475;SDS011;50739;45.670;11.936;2022-08-19T22:36:54;5.20;;;2.30;;
62475;SDS011;50739;45.670;11.936;2022-08-19T22:41:57;7.38;;;2.50;;
62475;SDS011;50739;45.670;11.936;2022-08-19T22:46:59;4.63;;;2.45;;
62475;SDS011;50739;45.670;11.936;2022-08-19T22:52:01;6.38;;;2.17;;
62475;SDS011;50739;45.670;11.936;2022-08-19T22:57:18;4.57;;;2.40;;
62475;SDS011;50739;45.670;11.936;2022-08-19T23:02:21;3.45;;;2.35;;
62475;SDS011;50739;45.670;11.936;2022-08-19T23:07:25;3.67;;;2.05;;
62475;SDS011;50739;45.670;11.936;2022-08-19T23:12:29;4.10;;;1.77;;
62475;SDS011;50739;45.670;11.936;2022-08-19T23:17:32;2.10;;;1.80;;
62475;SDS011;50739;45.670;11.936;2022-08-19T23:22:35;4.28;;;1.92;;
62475;SDS011;50739;45.670;11.936;2022-08-19T23:27:39;3.85;;;2.10;;
62475;SDS011;50739;45.670;11.936;2022-08-19T23:32:59;3.25;;;2.25;;
62475;SDS011;50739;45.670;11.936;2022-08-19T23:38:07;4.23;;;2.00;;
62475;SDS011;50739;45.670;11.936;2022-08-19T23:43:11;4.30;;;2.00;;
62475;SDS011;50739;45.670;11.936;2022-08-19T23:48:14;4.78;;;1.88;;
62475;SDS011;50739;45.670;11.936;2022-08-19T23:53:17;3.10;;;1.70;;
62475;SDS011;50739;45.670;11.936;2022-08-19T23:58:21;3.47;;;1.63;;
